sensor_id;sensor_type;location;lat;lon;timestamp;temperature;humidity
30150;DHT22;16962;48.646;9.026;2023-05-20T00:01:45;10.20;99.90
30150;DHT22;16962;48.646;9.026;2023-05-20T00:04:32;10.30;99.90
30150;DHT22;16962;48.646;9.026;2023-05-20T00:07:20;10.30;99.90
30150;DHT22;16962;48.646;9.026;2023-05-20T00:10:07;10.30;99.90
30150;DHT22;16962;48.646;9.026;2023-05-20T00:12:55;10.30;99.90
30150;DHT22;16962;48.646;9.026;2023-05-20T00:15:42;10.30;99.90
30150;DHT22;16962;48.646;9.026;2023-05-20T00:18:31;10.40;99.90
30150;DHT22;16962;48.646;9.026;2023-05-20T00:21:19;10.40;99.90
30150;DHT22;16962;48.646;9.026;2023-05-20T00:24:06;10.40;99.90
30150;DHT22;16962;48.646;9.026;2023-05-20T00:26:54;10.40;99.90
30150;DHT22;16962;48.646;9.026;2023-05-20T00:29:42;10.40;99.90
30150;DHT22;16962;48.646;9.026;2023-05-20T00:32:30;10.40;99.90
30150;DHT22;16962;48.646;9.026;2023-05-20T00:35:17;10.40;99.90
30150;DHT22;16962;48.646;9.026;2023-05-20T00:38:07;10.50;99.90
30150;DHT22;16962;48.646;9.026;2023-05-20T00:41:08;10.50;99.90
30150;DHT22;16962;48.646;9.026;2023-05-20T00:43:59;10.50;99.90
30150;DHT22;16962;48.646;9.026;2023-05-20T00:46:52;10.50;99.90
30150;DHT22;16962;48.646;9.026;2023-05-20T00:49:44;10.50;99.90
30150;DHT22;16962;48.646;9.026;2023-05-20T00:52:37;10.50;99.90
30150;DHT22;16962;48.646;9.026;2023-05-20T00:55:53;10.50;99.90
30150;DHT22;16962;48.646;9.026;2023-05-20T00:58:50;10.60;99.90
30150;DHT22;16962;48.646;9.026;2023-05-20T01:01:40;10.60;99.90
30150;DHT22;16962;48.646;9.026;2023-05-20T01:04:33;10.60;99.90
30150;DHT22;16962;48.646;9.026;2023-05-20T01:07:20;10.60;99.90
30150;DHT22;16962;48.646;9.026;2023-05-20T01:10:10;10.70;99.90
30150;DHT22;16962;48.646;9.026;2023-05-20T01:13:03;10.70;99.90
30150;DHT22;16962;48.646;9.026;2023-05-20T01:15:52;10.60;99.90
30150;DHT22;16962;48.646;9.026;2023-05-20T01:18:58;10.60;99.90
30150;DHT22;16962;48.646;9.026;2023-05-20T01:22:12;10.60;99.90
30150;DHT22;16962;48.646;9.026;2023-05-20T01:25:13;10.60;99.90
30150;DHT22;16962;48.646;9.026;2023-05-20T01:28:01;10.60;99.90
30150;DHT22;16962;48.646;9.026;2023-05-20T01:30:58;10.60;99.90
30150;DHT22;16962;48.646;9.026;2023-05-20T01:33:50;10.60;99.90
30150;DHT22;16962;48.646;9.026;2023-05-20T01:36:42;10.70;99.90
30150;DHT22;16962;48.646;9.026;2023-05-20T01:39:32;10.70;99.90
30150;DHT22;16962;48.646;9.026;2023-05-20T01:42:24;10.60;99.90
30150;DHT22;16962;48.646;9.026;2023-05-20T01:45:32;10.60;99.90
30150;DHT22;16962;48.646;9.026;2023-05-20T01:48:20;10.60;99.90
30150;DHT22;16962;48.646;9.026;2023-05-20T01:51:07;10.60;99.90
30150;DHT22;16962;48.646;9.026;2023-05-20T01:53:54;10.50;99.90
30150;DHT22;16962;48.646;9.026;2023-05-20T01:56:49;10.50;1.00
30150;DHT22;16962;48.646;9.026;2023-05-20T01:59:37;10.50;1.00
30150;DHT22;16962;48.646;9.026;2023-05-20T02:02:27;10.50;1.00
30150;DHT22;16962;48.646;9.026;2023-05-20T02:05:17;10.50;1.00
30150;DHT22;16962;48.646;9.026;2023-05-20T02:08:05;10.50;1.00
30150;DHT22;16962;48.646;9.026;2023-05-20T02:10:53;10.50;1.00
30150;DHT22;16962;48.646;9.026;2023-05-20T02:13:44;10.40;1.00
30150;DHT22;16962;48.646;9.026;2023-05-20T02:16:58;10.40;1.00
30150;DHT22;16962;48.646;9.026;2023-05-20T02:19:49;10.50;1.00
30150;DHT22;16962;48.646;9.026;2023-05-20T02:22:36;10.50;1.00
30150;DHT22;16962;48.646;9.026;2023-05-20T02:25:24;10.60;1.00
30150;DHT22;16962;48.646;9.026;2023-05-20T02:28:11;10.60;1.00
30150;DHT22;16962;48.646;9.026;2023-05-20T02:31:03;10.50;1.00
30150;DHT22;16962;48.646;9.026;2023-05-20T02:33:58;10.60;1.00
30150;DHT22;16962;48.646;9.026;2023-05-20T02:36:56;10.50;1.00
30150;DHT22;16962;48.646;9.026;2023-05-20T02:40:12;10.50;11.00
30150;DHT22;16962;48.646;9.026;2023-05-20T02:43:11;10.40;25.30
30150;DHT22;16962;48.646;9.026;2023-05-20T02:46:02;10.40;52.80
30150;DHT22;16962;48.646;9.026;2023-05-20T02:48:50;10.40;96.20
30150;DHT22;16962;48.646;9.026;2023-05-20T02:51:41;10.40;99.90
30150;DHT22;16962;48.646;9.026;2023-05-20T02:54:29;10.40;99.90
30150;DHT22;16962;48.646;9.026;2023-05-20T02:57:34;10.40;99.90
30150;DHT22;16962;48.646;9.026;2023-05-20T03:00:26;10.30;99.90
30150;DHT22;16962;48.646;9.026;2023-05-20T03:03:34;10.30;99.90
30150;DHT22;16962;48.646;9.026;2023-05-20T03:06:25;10.30;99.90
30150;DHT22;16962;48.646;9.026;2023-05-20T03:09:15;10.20;99.90
30150;DHT22;16962;48.646;9.026;2023-05-20T03:12:06;10.30;99.90
30150;DHT22;16962;48.646;9.026;2023-05-20T03:15:00;10.20;99.90
30150;DHT22;16962;48.646;9.026;2023-05-20T03:17:49;10.20;99.90
30150;DHT22;16962;48.646;9.026;2023-05-20T03:20:39;10.20;99.90
30150;DHT22;16962;48.646;9.026;2023-05-20T03:23:29;10.10;1.00
30150;DHT22;16962;48.646;9.026;2023-05-20T03:26:18;10.10;1.00
30150;DHT22;16962;48.646;9.026;2023-05-20T03:29:08;10.10;1.00
30150;DHT22;16962;48.646;9.026;2023-05-20T03:31:58;10.00;1.00
30150;DHT22;16962;48.646;9.026;2023-05-20T03:34:48;9.90;1.00
30150;DHT22;16962;48.646;9.026;2023-05-20T03:37:38;9.90;99.90
30150;DHT22;16962;48.646;9.026;2023-05-20T03:40:25;10.00;99.90
30150;DHT22;16962;48.646;9.026;2023-05-20T03:43:18;10.00;99.90
30150;DHT22;16962;48.646;9.026;2023-05-20T03:46:21;10.00;99.90
30150;DHT22;16962;48.646;9.026;2023-05-20T03:49:12;10.00;99.90
30150;DHT22;16962;48.646;9.026;2023-05-20T03:52:02;10.00;99.90
30150;DHT22;16962;48.646;9.026;2023-05-20T03:54:50;10.00;99.90
30150;DHT22;16962;48.646;9.026;2023-05-20T03:57:40;10.10;99.90
30150;DHT22;16962;48.646;9.026;2023-05-20T04:00:29;10.10;1.00
30150;DHT22;16962;48.646;9.026;2023-05-20T04:07:36;10.00;1.00
30150;DHT22;16962;48.646;9.026;2023-05-20T04:10:25;10.00;1.00
30150;DHT22;16962;48.646;9.026;2023-05-20T04:13:15;10.10;99.90
30150;DHT22;16962;48.646;9.026;2023-05-20T04:16:28;10.10;99.90
30150;DHT22;16962;48.646;9.026;2023-05-20T04:19:26;10.20;99.90
30150;DHT22;16962;48.646;9.026;2023-05-20T04:22:18;10.30;99.90
30150;DHT22;16962;48.646;9.026;2023-05-20T04:25:06;10.30;99.90
30150;DHT22;16962;48.646;9.026;2023-05-20T04:27:53;10.40;99.90
30150;DHT22;16962;48.646;9.026;2023-05-20T04:30:41;10.40;99.90
30150;DHT22;16962;48.646;9.026;2023-05-20T04:33:31;10.40;77.50
30150;DHT22;16962;48.646;9.026;2023-05-20T04:36:27;10.60;28.90
30150;DHT22;16962;48.646;9.026;2023-05-20T04:39:34;10.60;1.00
30150;DHT22;16962;48.646;9.026;2023-05-20T04:42:33;10.60;1.00
30150;DHT22;16962;48.646;9.026;2023-05-20T04:45:20;10.60;1.00
30150;DHT22;16962;48.646;9.026;2023-05-20T04:48:34;10.80;1.00
30150;DHT22;16962;48.646;9.026;2023-05-20T04:51:24;10.90;1.00
30150;DHT22;16962;48.646;9.026;2023-05-20T04:54:13;10.90;99.90
30150;DHT22;16962;48.646;9.026;2023-05-20T04:57:00;11.00;99.90
30150;DHT22;16962;48.646;9.026;2023-05-20T04:59:49;11.10;99.90
30150;DHT22;16962;48.646;9.026;2023-05-20T05:02:51;11.20;99.90
30150;DHT22;16962;48.646;9.026;2023-05-20T05:05:38;11.30;99.90
30150;DHT22;16962;48.646;9.026;2023-05-20T05:08:28;11.40;80.00
30150;DHT22;16962;48.646;9.026;2023-05-20T05:11:16;11.40;1.00
30150;DHT22;16962;48.646;9.026;2023-05-20T05:14:03;11.50;1.00
30150;DHT22;16962;48.646;9.026;2023-05-20T05:16:50;11.60;1.00
30150;DHT22;16962;48.646;9.026;2023-05-20T05:19:41;11.70;1.00
30150;DHT22;16962;48.646;9.026;2023-05-20T05:22:29;11.80;99.90
30150;DHT22;16962;48.646;9.026;2023-05-20T05:25:16;11.90;99.90
30150;DHT22;16962;48.646;9.026;2023-05-20T05:28:03;11.90;99.90
30150;DHT22;16962;48.646;9.026;2023-05-20T05:30:53;12.10;99.90
30150;DHT22;16962;48.646;9.026;2023-05-20T05:33:44;12.10;99.90
30150;DHT22;16962;48.646;9.026;2023-05-20T05:36:37;12.20;99.90
30150;DHT22;16962;48.646;9.026;2023-05-20T05:39:41;12.20;91.70
30150;DHT22;16962;48.646;9.026;2023-05-20T05:42:31;12.30;21.60
30150;DHT22;16962;48.646;9.026;2023-05-20T05:45:19;12.40;1.00
30150;DHT22;16962;48.646;9.026;2023-05-20T05:48:06;12.50;1.00
30150;DHT22;16962;48.646;9.026;2023-05-20T05:50:55;12.60;1.00
30150;DHT22;16962;48.646;9.026;2023-05-20T05:53:56;12.60;1.00
30150;DHT22;16962;48.646;9.026;2023-05-20T05:56:47;12.70;1.00
30150;DHT22;16962;48.646;9.026;2023-05-20T05:59:34;12.70;1.00
30150;DHT22;16962;48.646;9.026;2023-05-20T06:02:24;12.90;99.90
30150;DHT22;16962;48.646;9.026;2023-05-20T06:05:30;12.80;99.90
30150;DHT22;16962;48.646;9.026;2023-05-20T06:08:20;13.00;99.90
30150;DHT22;16962;48.646;9.026;2023-05-20T06:11:08;13.10;99.90
30150;DHT22;16962;48.646;9.026;2023-05-20T06:13:56;13.00;99.90
30150;DHT22;16962;48.646;9.026;2023-05-20T06:16:44;13.00;99.90
30150;DHT22;16962;48.646;9.026;2023-05-20T06:19:38;13.10;99.90
30150;DHT22;16962;48.646;9.026;2023-05-20T06:22:26;13.20;99.90
30150;DHT22;16962;48.646;9.026;2023-05-20T06:25:13;13.20;99.90
30150;DHT22;16962;48.646;9.026;2023-05-20T06:28:01;13.20;99.90
30150;DHT22;16962;48.646;9.026;2023-05-20T06:30:48;13.30;99.90
30150;DHT22;16962;48.646;9.026;2023-05-20T06:33:36;13.50;99.90
30150;DHT22;16962;48.646;9.026;2023-05-20T06:36:25;13.60;99.90
30150;DHT22;16962;48.646;9.026;2023-05-20T06:39:13;13.80;99.90
30150;DHT22;16962;48.646;9.026;2023-05-20T06:42:01;13.70;99.90
30150;DHT22;16962;48.646;9.026;2023-05-20T06:44:50;13.70;99.90
30150;DHT22;16962;48.646;9.026;2023-05-20T06:47:38;13.90;99.90
30150;DHT22;16962;48.646;9.026;2023-05-20T06:50:30;14.00;99.90
30150;DHT22;16962;48.646;9.026;2023-05-20T06:53:18;14.30;99.90
30150;DHT22;16962;48.646;9.026;2023-05-20T06:56:07;14.30;99.90
30150;DHT22;16962;48.646;9.026;2023-05-20T06:59:05;14.50;90.00
30150;DHT22;16962;48.646;9.026;2023-05-20T07:01:58;14.50;46.20
30150;DHT22;16962;48.646;9.026;2023-05-20T07:04:51;14.60;30.70
30150;DHT22;16962;48.646;9.026;2023-05-20T07:07:38;14.60;16.50
30150;DHT22;16962;48.646;9.026;2023-05-20T07:10:26;14.60;1.00
30150;DHT22;16962;48.646;9.026;2023-05-20T07:13:14;14.80;1.00
30150;DHT22;16962;48.646;9.026;2023-05-20T07:16:05;14.60;1.00
30150;DHT22;16962;48.646;9.026;2023-05-20T07:19:00;14.70;1.00
30150;DHT22;16962;48.646;9.026;2023-05-20T07:22:08;15.00;1.00
30150;DHT22;16962;48.646;9.026;2023-05-20T07:24:57;15.20;1.00
30150;DHT22;16962;48.646;9.026;2023-05-20T07:27:47;15.50;1.00
30150;DHT22;16962;48.646;9.026;2023-05-20T07:31:00;15.10;1.00
30150;DHT22;16962;48.646;9.026;2023-05-20T07:34:03;15.20;1.00
30150;DHT22;16962;48.646;9.026;2023-05-20T07:37:00;15.50;1.00
30150;DHT22;16962;48.646;9.026;2023-05-20T07:40:26;15.60;1.00
30150;DHT22;16962;48.646;9.026;2023-05-20T07:43:20;16.00;1.00
30150;DHT22;16962;48.646;9.026;2023-05-20T07:46:13;16.40;1.00
30150;DHT22;16962;48.646;9.026;2023-05-20T07:49:10;16.60;99.90
30150;DHT22;16962;48.646;9.026;2023-05-20T07:52:07;17.00;99.90
30150;DHT22;16962;48.646;9.026;2023-05-20T07:54:57;16.70;99.90
30150;DHT22;16962;48.646;9.026;2023-05-20T07:57:50;16.80;99.90
30150;DHT22;16962;48.646;9.026;2023-05-20T08:00:40;16.70;99.90
30150;DHT22;16962;48.646;9.026;2023-05-20T08:03:27;16.60;99.90
30150;DHT22;16962;48.646;9.026;2023-05-20T08:06:20;16.80;99.90
30150;DHT22;16962;48.646;9.026;2023-05-20T08:09:22;17.10;99.90
30150;DHT22;16962;48.646;9.026;2023-05-20T08:12:13;17.00;99.90
30150;DHT22;16962;48.646;9.026;2023-05-20T08:15:04;16.90;99.90
30150;DHT22;16962;48.646;9.026;2023-05-20T08:17:55;16.50;99.90
30150;DHT22;16962;48.646;9.026;2023-05-20T08:20:42;16.30;99.90
30150;DHT22;16962;48.646;9.026;2023-05-20T08:23:33;16.10;99.90
30150;DHT22;16962;48.646;9.026;2023-05-20T08:26:26;16.00;99.90
30150;DHT22;16962;48.646;9.026;2023-05-20T08:29:17;15.70;99.90
30150;DHT22;16962;48.646;9.026;2023-05-20T08:32:05;15.70;99.90
30150;DHT22;16962;48.646;9.026;2023-05-20T08:34:54;15.80;99.90
30150;DHT22;16962;48.646;9.026;2023-05-20T08:37:46;15.60;99.90
30150;DHT22;16962;48.646;9.026;2023-05-20T08:40:39;15.50;99.90
30150;DHT22;16962;48.646;9.026;2023-05-20T08:43:29;15.80;99.90
30150;DHT22;16962;48.646;9.026;2023-05-20T08:46:19;16.10;99.90
30150;DHT22;16962;48.646;9.026;2023-05-20T08:49:08;16.40;99.90
30150;DHT22;16962;48.646;9.026;2023-05-20T08:51:59;16.80;99.90
30150;DHT22;16962;48.646;9.026;2023-05-20T08:54:48;17.20;99.90
30150;DHT22;16962;48.646;9.026;2023-05-20T08:57:37;17.60;99.90
30150;DHT22;16962;48.646;9.026;2023-05-20T09:00:25;18.50;99.90
30150;DHT22;16962;48.646;9.026;2023-05-20T09:03:15;18.70;99.90
30150;DHT22;16962;48.646;9.026;2023-05-20T09:06:06;18.70;99.90
30150;DHT22;16962;48.646;9.026;2023-05-20T09:08:55;19.30;99.90
30150;DHT22;16962;48.646;9.026;2023-05-20T09:11:43;19.10;99.90
30150;DHT22;16962;48.646;9.026;2023-05-20T09:14:33;18.50;99.90
30150;DHT22;16962;48.646;9.026;2023-05-20T09:17:23;18.30;99.90
30150;DHT22;16962;48.646;9.026;2023-05-20T09:20:11;18.50;99.90
30150;DHT22;16962;48.646;9.026;2023-05-20T09:23:04;18.40;99.90
30150;DHT22;16962;48.646;9.026;2023-05-20T09:26:03;17.80;99.90
30150;DHT22;16962;48.646;9.026;2023-05-20T09:28:50;18.60;99.90
30150;DHT22;16962;48.646;9.026;2023-05-20T09:31:39;18.70;99.90
30150;DHT22;16962;48.646;9.026;2023-05-20T09:34:28;18.50;99.90
30150;DHT22;16962;48.646;9.026;2023-05-20T09:37:20;18.80;99.90
30150;DHT22;16962;48.646;9.026;2023-05-20T09:40:28;19.80;99.90
30150;DHT22;16962;48.646;9.026;2023-05-20T09:43:16;20.00;99.90
30150;DHT22;16962;48.646;9.026;2023-05-20T09:46:04;20.60;99.90
30150;DHT22;16962;48.646;9.026;2023-05-20T09:48:52;21.50;99.90
30150;DHT22;16962;48.646;9.026;2023-05-20T09:51:43;21.60;99.90
30150;DHT22;16962;48.646;9.026;2023-05-20T09:54:47;21.50;99.90
30150;DHT22;16962;48.646;9.026;2023-05-20T09:57:36;22.30;99.90
30150;DHT22;16962;48.646;9.026;2023-05-20T10:00:24;23.40;99.90
30150;DHT22;16962;48.646;9.026;2023-05-20T10:03:14;22.30;98.40
30150;DHT22;16962;48.646;9.026;2023-05-20T10:22:03;23.50;96.40
30150;DHT22;16962;48.646;9.026;2023-05-20T10:25:03;24.20;97.90
30150;DHT22;16962;48.646;9.026;2023-05-20T10:28:08;24.50;90.30
30150;DHT22;16962;48.646;9.026;2023-05-20T10:30:56;25.00;87.70
30150;DHT22;16962;48.646;9.026;2023-05-20T10:33:44;24.40;80.10
30150;DHT22;16962;48.646;9.026;2023-05-20T10:36:32;24.30;79.80
30150;DHT22;16962;48.646;9.026;2023-05-20T10:39:30;23.70;68.40
30150;DHT22;16962;48.646;9.026;2023-05-20T10:42:27;24.10;83.70
30150;DHT22;16962;48.646;9.026;2023-05-20T10:45:29;24.70;75.10
30150;DHT22;16962;48.646;9.026;2023-05-20T10:48:23;24.70;66.70
30150;DHT22;16962;48.646;9.026;2023-05-20T10:51:12;24.20;60.80
30150;DHT22;16962;48.646;9.026;2023-05-20T10:54:03;24.50;65.70
30150;DHT22;16962;48.646;9.026;2023-05-20T10:56:52;25.10;69.40
30150;DHT22;16962;48.646;9.026;2023-05-20T10:59:40;26.00;57.40
30150;DHT22;16962;48.646;9.026;2023-05-20T11:02:28;27.30;62.20
30150;DHT22;16962;48.646;9.026;2023-05-20T11:05:18;26.40;48.50
30150;DHT22;16962;48.646;9.026;2023-05-20T11:08:09;24.90;64.70
30150;DHT22;16962;48.646;9.026;2023-05-20T11:11:14;24.50;48.50
30150;DHT22;16962;48.646;9.026;2023-05-20T11:14:03;25.30;61.30
30150;DHT22;16962;48.646;9.026;2023-05-20T11:16:51;25.00;45.60
30150;DHT22;16962;48.646;9.026;2023-05-20T11:19:40;24.40;43.60
30150;DHT22;16962;48.646;9.026;2023-05-20T11:22:31;23.60;45.80
30150;DHT22;16962;48.646;9.026;2023-05-20T11:25:19;22.80;40.40
30150;DHT22;16962;48.646;9.026;2023-05-20T11:28:13;22.90;60.50
30150;DHT22;16962;48.646;9.026;2023-05-20T11:31:00;23.90;54.20
30150;DHT22;16962;48.646;9.026;2023-05-20T11:33:55;24.20;53.50
30150;DHT22;16962;48.646;9.026;2023-05-20T11:36:46;23.90;48.50
30150;DHT22;16962;48.646;9.026;2023-05-20T11:40:05;23.90;60.00
30150;DHT22;16962;48.646;9.026;2023-05-20T11:42:58;24.10;49.40
30150;DHT22;16962;48.646;9.026;2023-05-20T11:45:53;24.00;53.40
30150;DHT22;16962;48.646;9.026;2023-05-20T11:49:00;23.40;57.90
30150;DHT22;16962;48.646;9.026;2023-05-20T11:51:48;22.80;50.80
30150;DHT22;16962;48.646;9.026;2023-05-20T11:54:38;22.80;48.10
30150;DHT22;16962;48.646;9.026;2023-05-20T11:57:28;22.70;50.30
30150;DHT22;16962;48.646;9.026;2023-05-20T12:00:37;23.10;49.60
30150;DHT22;16962;48.646;9.026;2023-05-20T12:03:40;23.40;52.40
30150;DHT22;16962;48.646;9.026;2023-05-20T12:06:28;24.10;46.60
30150;DHT22;16962;48.646;9.026;2023-05-20T12:09:15;24.90;43.30
30150;DHT22;16962;48.646;9.026;2023-05-20T12:12:11;25.60;43.00
30150;DHT22;16962;48.646;9.026;2023-05-20T12:15:00;26.50;33.80
30150;DHT22;16962;48.646;9.026;2023-05-20T12:17:51;28.40;40.90
30150;DHT22;16962;48.646;9.026;2023-05-20T12:20:41;28.60;35.90
30150;DHT22;16962;48.646;9.026;2023-05-20T12:23:28;27.50;23.50
30150;DHT22;16962;48.646;9.026;2023-05-20T12:26:22;26.60;25.40
30150;DHT22;16962;48.646;9.026;2023-05-20T12:29:13;25.80;25.70
30150;DHT22;16962;48.646;9.026;2023-05-20T12:32:00;26.90;25.50
30150;DHT22;16962;48.646;9.026;2023-05-20T12:34:48;28.40;31.50
30150;DHT22;16962;48.646;9.026;2023-05-20T12:37:42;30.10;33.60
30150;DHT22;16962;48.646;9.026;2023-05-20T12:40:48;28.80;23.80
30150;DHT22;16962;48.646;9.026;2023-05-20T12:43:36;26.70;24.90
30150;DHT22;16962;48.646;9.026;2023-05-20T12:46:23;25.10;24.00
30150;DHT22;16962;48.646;9.026;2023-05-20T12:49:12;24.80;40.30
30150;DHT22;16962;48.646;9.026;2023-05-20T12:52:00;24.80;36.60
30150;DHT22;16962;48.646;9.026;2023-05-20T12:55:11;25.00;27.00
30150;DHT22;16962;48.646;9.026;2023-05-20T12:58:04;24.70;33.70
30150;DHT22;16962;48.646;9.026;2023-05-20T13:00:54;25.70;43.50
30150;DHT22;16962;48.646;9.026;2023-05-20T13:03:42;26.60;37.30
30150;DHT22;16962;48.646;9.026;2023-05-20T13:06:29;26.60;23.70
30150;DHT22;16962;48.646;9.026;2023-05-20T13:09:17;25.30;23.30
30150;DHT22;16962;48.646;9.026;2023-05-20T13:12:05;24.30;17.40
30150;DHT22;16962;48.646;9.026;2023-05-20T13:14:52;24.80;22.30
30150;DHT22;16962;48.646;9.026;2023-05-20T13:17:43;25.50;13.60
30150;DHT22;16962;48.646;9.026;2023-05-20T13:20:31;25.50;32.10
30150;DHT22;16962;48.646;9.026;2023-05-20T13:23:21;25.80;38.80
30150;DHT22;16962;48.646;9.026;2023-05-20T13:26:09;25.10;25.20
30150;DHT22;16962;48.646;9.026;2023-05-20T13:28:56;24.30;23.90
30150;DHT22;16962;48.646;9.026;2023-05-20T13:31:46;23.90;22.40
30150;DHT22;16962;48.646;9.026;2023-05-20T13:34:33;23.90;26.00
30150;DHT22;16962;48.646;9.026;2023-05-20T13:37:24;24.10;26.30
30150;DHT22;16962;48.646;9.026;2023-05-20T13:40:12;24.20;25.00
30150;DHT22;16962;48.646;9.026;2023-05-20T13:43:02;24.10;23.50
30150;DHT22;16962;48.646;9.026;2023-05-20T13:46:03;23.80;17.20
30150;DHT22;16962;48.646;9.026;2023-05-20T13:48:50;23.50;21.50
30150;DHT22;16962;48.646;9.026;2023-05-20T13:51:42;23.20;17.20
30150;DHT22;16962;48.646;9.026;2023-05-20T13:54:30;23.10;21.30
30150;DHT22;16962;48.646;9.026;2023-05-20T13:57:21;23.10;12.80
30150;DHT22;16962;48.646;9.026;2023-05-20T14:00:12;23.10;10.70
30150;DHT22;16962;48.646;9.026;2023-05-20T14:02:59;23.00;16.50
30150;DHT22;16962;48.646;9.026;2023-05-20T14:05:47;22.70;10.00
30150;DHT22;16962;48.646;9.026;2023-05-20T14:08:34;23.10;11.90
30150;DHT22;16962;48.646;9.026;2023-05-20T14:11:24;23.90;19.40
30150;DHT22;16962;48.646;9.026;2023-05-20T14:14:11;24.10;18.50
30150;DHT22;16962;48.646;9.026;2023-05-20T14:16:59;24.10;7.20
30150;DHT22;16962;48.646;9.026;2023-05-20T14:19:50;24.10;11.80
30150;DHT22;16962;48.646;9.026;2023-05-20T14:22:53;24.20;12.60
30150;DHT22;16962;48.646;9.026;2023-05-20T14:25:41;24.20;10.90
30150;DHT22;16962;48.646;9.026;2023-05-20T14:28:34;23.90;18.50
30150;DHT22;16962;48.646;9.026;2023-05-20T14:31:21;23.60;6.20
30150;DHT22;16962;48.646;9.026;2023-05-20T14:34:09;23.40;3.60
30150;DHT22;16962;48.646;9.026;2023-05-20T14:36:57;23.10;1.30
30150;DHT22;16962;48.646;9.026;2023-05-20T14:39:54;23.10;2.90
30150;DHT22;16962;48.646;9.026;2023-05-20T14:42:41;22.70;6.60
30150;DHT22;16962;48.646;9.026;2023-05-20T14:45:28;22.40;5.20
30150;DHT22;16962;48.646;9.026;2023-05-20T14:48:19;22.40;8.30
30150;DHT22;16962;48.646;9.026;2023-05-20T14:51:06;22.80;16.80
30150;DHT22;16962;48.646;9.026;2023-05-20T14:53:57;22.70;15.30
30150;DHT22;16962;48.646;9.026;2023-05-20T14:56:45;22.50;17.60
30150;DHT22;16962;48.646;9.026;2023-05-20T14:59:37;22.30;11.00
30150;DHT22;16962;48.646;9.026;2023-05-20T15:02:26;22.20;17.00
30150;DHT22;16962;48.646;9.026;2023-05-20T15:05:26;22.10;16.50
30150;DHT22;16962;48.646;9.026;2023-05-20T15:08:13;22.00;6.80
30150;DHT22;16962;48.646;9.026;2023-05-20T15:11:02;21.90;17.80
30150;DHT22;16962;48.646;9.026;2023-05-20T15:13:53;22.00;20.90
30150;DHT22;16962;48.646;9.026;2023-05-20T15:16:41;22.30;20.70
30150;DHT22;16962;48.646;9.026;2023-05-20T15:19:31;22.80;20.90
30150;DHT22;16962;48.646;9.026;2023-05-20T15:22:18;23.50;14.20
30150;DHT22;16962;48.646;9.026;2023-05-20T15:25:06;23.50;9.00
30150;DHT22;16962;48.646;9.026;2023-05-20T15:27:57;23.60;8.40
30150;DHT22;16962;48.646;9.026;2023-05-20T15:30:50;23.10;2.70
30150;DHT22;16962;48.646;9.026;2023-05-20T15:33:37;22.70;3.60
30150;DHT22;16962;48.646;9.026;2023-05-20T15:36:28;22.40;1.90
30150;DHT22;16962;48.646;9.026;2023-05-20T15:39:18;22.40;2.50
30150;DHT22;16962;48.646;9.026;2023-05-20T15:42:09;22.40;4.60
30150;DHT22;16962;48.646;9.026;2023-05-20T15:45:00;23.20;4.80
30150;DHT22;16962;48.646;9.026;2023-05-20T15:47:47;24.50;3.60
30150;DHT22;16962;48.646;9.026;2023-05-20T15:50:37;25.00;5.20
30150;DHT22;16962;48.646;9.026;2023-05-20T15:53:25;25.30;8.80
30150;DHT22;16962;48.646;9.026;2023-05-20T15:56:12;24.90;4.80
30150;DHT22;16962;48.646;9.026;2023-05-20T15:59:01;24.80;5.00
30150;DHT22;16962;48.646;9.026;2023-05-20T16:01:56;24.40;6.90
30150;DHT22;16962;48.646;9.026;2023-05-20T16:04:44;23.50;6.10
30150;DHT22;16962;48.646;9.026;2023-05-20T16:07:37;23.20;9.90
30150;DHT22;16962;48.646;9.026;2023-05-20T16:10:30;22.80;4.50
30150;DHT22;16962;48.646;9.026;2023-05-20T16:13:23;22.60;8.90
30150;DHT22;16962;48.646;9.026;2023-05-20T16:16:11;22.00;8.80
30150;DHT22;16962;48.646;9.026;2023-05-20T16:19:03;21.90;2.10
30150;DHT22;16962;48.646;9.026;2023-05-20T16:21:50;21.90;1.00
30150;DHT22;16962;48.646;9.026;2023-05-20T16:24:39;22.20;7.30
30150;DHT22;16962;48.646;9.026;2023-05-20T16:27:30;22.50;6.30
30150;DHT22;16962;48.646;9.026;2023-05-20T16:30:17;22.80;10.00
30150;DHT22;16962;48.646;9.026;2023-05-20T16:33:06;22.90;9.80
30150;DHT22;16962;48.646;9.026;2023-05-20T16:35:57;23.10;9.80
30150;DHT22;16962;48.646;9.026;2023-05-20T16:38:47;23.20;8.10
30150;DHT22;16962;48.646;9.026;2023-05-20T16:41:34;23.20;8.40
30150;DHT22;16962;48.646;9.026;2023-05-20T16:44:22;22.90;3.30
30150;DHT22;16962;48.646;9.026;2023-05-20T16:47:09;22.50;4.30
30150;DHT22;16962;48.646;9.026;2023-05-20T16:49:57;22.30;9.40
30150;DHT22;16962;48.646;9.026;2023-05-20T16:52:52;22.10;9.70
30150;DHT22;16962;48.646;9.026;2023-05-20T16:55:40;21.90;8.50
30150;DHT22;16962;48.646;9.026;2023-05-20T16:58:30;21.70;10.70
30150;DHT22;16962;48.646;9.026;2023-05-20T17:01:20;21.50;18.10
30150;DHT22;16962;48.646;9.026;2023-05-20T17:04:09;21.40;11.10
30150;DHT22;16962;48.646;9.026;2023-05-20T17:06:56;21.30;12.60
30150;DHT22;16962;48.646;9.026;2023-05-20T17:09:44;21.20;16.00
30150;DHT22;16962;48.646;9.026;2023-05-20T17:12:35;21.10;16.90
30150;DHT22;16962;48.646;9.026;2023-05-20T17:15:22;21.00;14.40
30150;DHT22;16962;48.646;9.026;2023-05-20T17:18:11;21.10;25.10
30150;DHT22;16962;48.646;9.026;2023-05-20T17:20:59;21.10;16.80
30150;DHT22;16962;48.646;9.026;2023-05-20T17:23:47;21.10;21.10
30150;DHT22;16962;48.646;9.026;2023-05-20T17:26:34;21.10;24.90
30150;DHT22;16962;48.646;9.026;2023-05-20T17:29:22;21.10;25.40
30150;DHT22;16962;48.646;9.026;2023-05-20T17:32:11;21.00;26.60
30150;DHT22;16962;48.646;9.026;2023-05-20T17:35:26;20.90;28.70
30150;DHT22;16962;48.646;9.026;2023-05-20T17:38:14;20.90;27.40
30150;DHT22;16962;48.646;9.026;2023-05-20T17:41:04;20.80;31.10
30150;DHT22;16962;48.646;9.026;2023-05-20T17:43:52;20.80;35.00
30150;DHT22;16962;48.646;9.026;2023-05-20T17:46:40;20.70;37.60
30150;DHT22;16962;48.646;9.026;2023-05-20T17:49:27;20.70;34.70
30150;DHT22;16962;48.646;9.026;2023-05-20T17:52:19;20.60;28.40
30150;DHT22;16962;48.646;9.026;2023-05-20T17:55:09;20.50;21.90
30150;DHT22;16962;48.646;9.026;2023-05-20T17:57:56;20.30;34.50
30150;DHT22;16962;48.646;9.026;2023-05-20T18:00:45;20.10;55.00
30150;DHT22;16962;48.646;9.026;2023-05-20T18:03:32;20.00;62.50
30150;DHT22;16962;48.646;9.026;2023-05-20T18:06:20;19.80;78.50
30150;DHT22;16962;48.646;9.026;2023-05-20T18:09:08;19.60;91.00
30150;DHT22;16962;48.646;9.026;2023-05-20T18:11:58;19.60;96.60
30150;DHT22;16962;48.646;9.026;2023-05-20T18:14:47;19.50;99.80
30150;DHT22;16962;48.646;9.026;2023-05-20T18:17:35;19.40;99.90
30150;DHT22;16962;48.646;9.026;2023-05-20T18:20:26;19.40;99.90
30150;DHT22;16962;48.646;9.026;2023-05-20T18:23:14;19.30;99.90
30150;DHT22;16962;48.646;9.026;2023-05-20T18:26:01;19.20;99.90
30150;DHT22;16962;48.646;9.026;2023-05-20T18:28:55;19.00;99.90